sensor_id;sensor_type;location;lat;lon;timestamp;P1;durP1;ratioP1;P2;durP2;ratioP2
73585;SDS011;61865;50.232;18.614;2024-03-29T00:01:45;6.38;;;3.38;;
73585;SDS011;61865;50.232;18.614;2024-03-29T00:04:06;8.50;;;3.10;;
73585;SDS011;61865;50.232;18.614;2024-03-29T00:06:27;5.35;;;3.58;;
73585;SDS011;61865;50.232;18.614;2024-03-29T00:11:11;7.10;;;3.65;;
73585;SDS011;61865;50.232;18.614;2024-03-29T00:13:33;8.15;;;4.18;;
73585;SDS011;61865;50.232;18.614;2024-03-29T00:18:15;10.50;;;6.95;;
73585;SDS011;61865;50.232;18.614;2024-03-29T00:22:58;14.35;;;5.72;;
73585;SDS011;61865;50.232;18.614;2024-03-29T00:27:42;10.73;;;5.32;;
73585;SDS011;61865;50.232;18.614;2024-03-29T00:30:04;9.30;;;5.60;;
73585;SDS011;61865;50.232;18.614;2024-03-29T00:32:25;11.63;;;5.50;;
73585;SDS011;61865;50.232;18.614;2024-03-29T00:37:07;9.15;;;5.20;;
73585;SDS011;61865;50.232;18.614;2024-03-29T00:39:29;17.70;;;7.95;;
73585;SDS011;61865;50.232;18.614;2024-03-29T00:44:13;8.80;;;4.68;;
73585;SDS011;61865;50.232;18.614;2024-03-29T00:46:34;12.35;;;5.47;;
73585;SDS011;61865;50.232;18.614;2024-03-29T00:48:55;10.68;;;5.03;;
73585;SDS011;61865;50.232;18.614;2024-03-29T00:51:17;9.45;;;4.20;;
73585;SDS011;61865;50.232;18.614;2024-03-29T00:53:38;7.93;;;4.40;;
73585;SDS011;61865;50.232;18.614;2024-03-29T00:55:59;13.73;;;4.20;;
73585;SDS011;61865;50.232;18.614;2024-03-29T01:00:43;7.22;;;3.40;;
73585;SDS011;61865;50.232;18.614;2024-03-29T01:03:05;6.80;;;3.55;;
73585;SDS011;61865;50.232;18.614;2024-03-29T01:07:47;7.82;;;4.07;;
73585;SDS011;61865;50.232;18.614;2024-03-29T01:10:09;6.25;;;3.63;;
73585;SDS011;61865;50.232;18.614;2024-03-29T01:14:51;7.00;;;3.45;;
73585;SDS011;61865;50.232;18.614;2024-03-29T01:17:14;5.70;;;3.58;;
73585;SDS011;61865;50.232;18.614;2024-03-29T01:19:36;6.30;;;3.42;;
73585;SDS011;61865;50.232;18.614;2024-03-29T01:24:18;6.72;;;3.47;;
73585;SDS011;61865;50.232;18.614;2024-03-29T01:26:39;7.47;;;3.95;;
73585;SDS011;61865;50.232;18.614;2024-03-29T01:29:01;6.05;;;3.88;;
73585;SDS011;61865;50.232;18.614;2024-03-29T01:31:22;8.32;;;5.20;;
73585;SDS011;61865;50.232;18.614;2024-03-29T01:33:45;11.65;;;6.90;;
73585;SDS011;61865;50.232;18.614;2024-03-29T01:36:06;12.15;;;7.60;;
73585;SDS011;61865;50.232;18.614;2024-03-29T01:38:28;10.48;;;6.53;;
73585;SDS011;61865;50.232;18.614;2024-03-29T01:40:49;14.65;;;5.07;;
73585;SDS011;61865;50.232;18.614;2024-03-29T01:43:11;10.18;;;3.97;;
73585;SDS011;61865;50.232;18.614;2024-03-29T01:45:33;6.35;;;3.28;;
73585;SDS011;61865;50.232;18.614;2024-03-29T01:47:56;5.38;;;3.40;;
73585;SDS011;61865;50.232;18.614;2024-03-29T01:50:20;6.85;;;3.50;;
73585;SDS011;61865;50.232;18.614;2024-03-29T01:52:46;5.60;;;3.15;;
73585;SDS011;61865;50.232;18.614;2024-03-29T01:55:09;4.47;;;3.20;;
73585;SDS011;61865;50.232;18.614;2024-03-29T01:57:34;5.82;;;3.40;;
73585;SDS011;61865;50.232;18.614;2024-03-29T01:59:58;5.53;;;3.35;;
73585;SDS011;61865;50.232;18.614;2024-03-29T02:02:25;7.32;;;4.32;;
73585;SDS011;61865;50.232;18.614;2024-03-29T02:04:48;6.38;;;3.42;;
73585;SDS011;61865;50.232;18.614;2024-03-29T02:07:11;4.60;;;2.78;;
73585;SDS011;61865;50.232;18.614;2024-03-29T02:09:35;6.80;;;3.42;;
73585;SDS011;61865;50.232;18.614;2024-03-29T02:11:59;5.40;;;3.38;;
73585;SDS011;61865;50.232;18.614;2024-03-29T02:14:21;5.80;;;3.20;;
73585;SDS011;61865;50.232;18.614;2024-03-29T02:16:44;8.07;;;4.35;;
73585;SDS011;61865;50.232;18.614;2024-03-29T02:19:10;6.40;;;3.97;;
73585;SDS011;61865;50.232;18.614;2024-03-29T02:21:36;7.70;;;5.13;;
73585;SDS011;61865;50.232;18.614;2024-03-29T02:24:05;8.32;;;4.97;;
73585;SDS011;61865;50.232;18.614;2024-03-29T02:26:30;6.35;;;4.35;;
73585;SDS011;61865;50.232;18.614;2024-03-29T02:28:56;6.05;;;3.38;;
73585;SDS011;61865;50.232;18.614;2024-03-29T02:31:19;5.03;;;3.17;;
73585;SDS011;61865;50.232;18.614;2024-03-29T02:33:44;4.05;;;2.80;;
73585;SDS011;61865;50.232;18.614;2024-03-29T02:36:06;6.22;;;3.50;;
73585;SDS011;61865;50.232;18.614;2024-03-29T02:38:29;3.75;;;2.70;;
73585;SDS011;61865;50.232;18.614;2024-03-29T02:40:54;8.20;;;2.97;;
73585;SDS011;61865;50.232;18.614;2024-03-29T02:43:18;7.35;;;3.30;;
73585;SDS011;61865;50.232;18.614;2024-03-29T02:45:41;6.88;;;4.13;;
73585;SDS011;61865;50.232;18.614;2024-03-29T02:48:04;7.20;;;3.28;;
73585;SDS011;61865;50.232;18.614;2024-03-29T02:50:34;9.07;;;3.10;;
73585;SDS011;61865;50.232;18.614;2024-03-29T02:52:57;4.93;;;3.05;;
73585;SDS011;61865;50.232;18.614;2024-03-29T02:55:21;3.25;;;2.47;;
73585;SDS011;61865;50.232;18.614;2024-03-29T02:57:47;3.45;;;2.70;;
73585;SDS011;61865;50.232;18.614;2024-03-29T03:00:11;4.85;;;3.00;;
73585;SDS011;61865;50.232;18.614;2024-03-29T03:02:32;4.45;;;2.92;;
73585;SDS011;61865;50.232;18.614;2024-03-29T03:04:57;5.22;;;3.30;;
73585;SDS011;61865;50.232;18.614;2024-03-29T03:07:21;5.25;;;3.17;;
73585;SDS011;61865;50.232;18.614;2024-03-29T03:09:57;4.07;;;2.80;;
73585;SDS011;61865;50.232;18.614;2024-03-29T03:12:37;4.88;;;3.47;;
73585;SDS011;61865;50.232;18.614;2024-03-29T03:15:05;4.65;;;3.17;;
73585;SDS011;61865;50.232;18.614;2024-03-29T03:17:28;5.38;;;3.40;;
73585;SDS011;61865;50.232;18.614;2024-03-29T03:19:50;14.20;;;3.88;;
73585;SDS011;61865;50.232;18.614;2024-03-29T03:22:13;6.80;;;3.63;;
73585;SDS011;61865;50.232;18.614;2024-03-29T03:24:38;6.45;;;3.97;;
73585;SDS011;61865;50.232;18.614;2024-03-29T03:27:04;6.43;;;3.90;;
73585;SDS011;61865;50.232;18.614;2024-03-29T03:29:25;8.35;;;3.65;;
73585;SDS011;61865;50.232;18.614;2024-03-29T03:31:52;7.57;;;4.13;;
73585;SDS011;61865;50.232;18.614;2024-03-29T03:34:15;7.35;;;4.22;;
73585;SDS011;61865;50.232;18.614;2024-03-29T03:36:40;6.97;;;3.85;;
73585;SDS011;61865;50.232;18.614;2024-03-29T03:39:01;6.85;;;3.90;;
73585;SDS011;61865;50.232;18.614;2024-03-29T03:41:24;6.55;;;3.75;;
73585;SDS011;61865;50.232;18.614;2024-03-29T03:43:45;7.85;;;3.92;;
73585;SDS011;61865;50.232;18.614;2024-03-29T03:46:11;7.97;;;4.13;;
73585;SDS011;61865;50.232;18.614;2024-03-29T03:48:35;6.38;;;4.13;;
73585;SDS011;61865;50.232;18.614;2024-03-29T03:50:58;5.45;;;4.05;;
73585;SDS011;61865;50.232;18.614;2024-03-29T03:55:42;6.78;;;4.43;;
73585;SDS011;61865;50.232;18.614;2024-03-29T03:58:05;10.15;;;4.90;;
73585;SDS011;61865;50.232;18.614;2024-03-29T04:00:29;7.45;;;4.53;;
73585;SDS011;61865;50.232;18.614;2024-03-29T04:02:51;7.78;;;4.63;;
73585;SDS011;61865;50.232;18.614;2024-03-29T04:05:15;7.05;;;4.13;;
73585;SDS011;61865;50.232;18.614;2024-03-29T04:07:37;5.85;;;3.60;;
73585;SDS011;61865;50.232;18.614;2024-03-29T04:10:03;5.32;;;4.03;;
73585;SDS011;61865;50.232;18.614;2024-03-29T04:12:25;7.70;;;4.10;;
73585;SDS011;61865;50.232;18.614;2024-03-29T04:14:49;7.70;;;4.28;;
73585;SDS011;61865;50.232;18.614;2024-03-29T04:17:12;6.93;;;4.32;;
73585;SDS011;61865;50.232;18.614;2024-03-29T04:19:34;6.70;;;4.80;;
73585;SDS011;61865;50.232;18.614;2024-03-29T04:21:57;6.50;;;4.15;;
73585;SDS011;61865;50.232;18.614;2024-03-29T04:24:19;6.68;;;4.18;;
73585;SDS011;61865;50.232;18.614;2024-03-29T04:26:41;7.47;;;4.32;;
73585;SDS011;61865;50.232;18.614;2024-03-29T04:29:04;5.80;;;4.10;;
73585;SDS011;61865;50.232;18.614;2024-03-29T04:31:27;7.43;;;4.35;;
73585;SDS011;61865;50.232;18.614;2024-03-29T04:33:48;7.57;;;4.63;;
73585;SDS011;61865;50.232;18.614;2024-03-29T04:36:10;8.30;;;4.53;;
73585;SDS011;61865;50.232;18.614;2024-03-29T04:38:33;9.43;;;4.85;;
73585;SDS011;61865;50.232;18.614;2024-03-29T04:40:55;7.72;;;5.10;;
73585;SDS011;61865;50.232;18.614;2024-03-29T04:43:18;9.88;;;4.65;;
73585;SDS011;61865;50.232;18.614;2024-03-29T04:45:43;6.68;;;4.80;;
73585;SDS011;61865;50.232;18.614;2024-03-29T04:48:05;6.13;;;4.32;;
73585;SDS011;61865;50.232;18.614;2024-03-29T04:50:28;7.97;;;4.30;;
73585;SDS011;61865;50.232;18.614;2024-03-29T04:52:50;6.40;;;4.47;;
73585;SDS011;61865;50.232;18.614;2024-03-29T04:55:14;7.88;;;4.63;;
73585;SDS011;61865;50.232;18.614;2024-03-29T04:57:36;6.68;;;4.43;;
73585;SDS011;61865;50.232;18.614;2024-03-29T04:59:59;6.90;;;4.38;;
73585;SDS011;61865;50.232;18.614;2024-03-29T05:02:21;6.95;;;4.60;;
73585;SDS011;61865;50.232;18.614;2024-03-29T05:04:43;5.93;;;4.25;;
73585;SDS011;61865;50.232;18.614;2024-03-29T05:07:07;11.32;;;4.60;;
73585;SDS011;61865;50.232;18.614;2024-03-29T05:09:29;7.68;;;4.55;;
73585;SDS011;61865;50.232;18.614;2024-03-29T05:11:53;6.20;;;4.60;;
73585;SDS011;61865;50.232;18.614;2024-03-29T05:14:20;10.68;;;4.15;;
73585;SDS011;61865;50.232;18.614;2024-03-29T05:16:48;6.77;;;3.97;;
73585;SDS011;61865;50.232;18.614;2024-03-29T05:19:12;5.57;;;4.10;;
73585;SDS011;61865;50.232;18.614;2024-03-29T05:21:36;6.93;;;4.13;;
73585;SDS011;61865;50.232;18.614;2024-03-29T05:24:05;8.45;;;4.82;;
73585;SDS011;61865;50.232;18.614;2024-03-29T05:26:28;7.45;;;4.25;;
73585;SDS011;61865;50.232;18.614;2024-03-29T05:28:58;5.22;;;3.90;;
73585;SDS011;61865;50.232;18.614;2024-03-29T05:31:28;5.47;;;3.50;;
73585;SDS011;61865;50.232;18.614;2024-03-29T05:33:52;7.18;;;3.67;;
73585;SDS011;61865;50.232;18.614;2024-03-29T05:36:25;4.93;;;3.40;;
73585;SDS011;61865;50.232;18.614;2024-03-29T05:38:48;6.05;;;3.92;;
73585;SDS011;61865;50.232;18.614;2024-03-29T05:41:11;6.78;;;3.95;;
73585;SDS011;61865;50.232;18.614;2024-03-29T05:43:35;6.25;;;3.67;;
73585;SDS011;61865;50.232;18.614;2024-03-29T05:46:03;6.25;;;3.72;;
73585;SDS011;61865;50.232;18.614;2024-03-29T05:48:28;5.65;;;3.80;;
73585;SDS011;61865;50.232;18.614;2024-03-29T05:50:53;6.03;;;3.35;;
73585;SDS011;61865;50.232;18.614;2024-03-29T05:53:17;5.40;;;3.25;;
73585;SDS011;61865;50.232;18.614;2024-03-29T05:55:45;4.95;;;3.40;;
73585;SDS011;61865;50.232;18.614;2024-03-29T05:58:21;4.78;;;3.25;;
73585;SDS011;61865;50.232;18.614;2024-03-29T06:00:43;9.95;;;3.42;;
73585;SDS011;61865;50.232;18.614;2024-03-29T06:03:07;4.43;;;3.05;;
73585;SDS011;61865;50.232;18.614;2024-03-29T06:05:29;4.03;;;2.90;;
73585;SDS011;61865;50.232;18.614;2024-03-29T06:07:51;5.10;;;3.35;;
73585;SDS011;61865;50.232;18.614;2024-03-29T06:10:14;4.75;;;2.88;;
73585;SDS011;61865;50.232;18.614;2024-03-29T06:12:37;4.97;;;2.95;;
73585;SDS011;61865;50.232;18.614;2024-03-29T06:14:59;6.07;;;3.10;;
73585;SDS011;61865;50.232;18.614;2024-03-29T06:17:39;7.00;;;3.80;;
73585;SDS011;61865;50.232;18.614;2024-03-29T06:20:03;5.53;;;3.35;;
73585;SDS011;61865;50.232;18.614;2024-03-29T06:22:25;4.60;;;2.72;;
73585;SDS011;61865;50.232;18.614;2024-03-29T06:24:50;5.50;;;2.90;;
73585;SDS011;61865;50.232;18.614;2024-03-29T06:27:13;7.18;;;3.00;;
73585;SDS011;61865;50.232;18.614;2024-03-29T06:29:37;6.28;;;3.33;;
73585;SDS011;61865;50.232;18.614;2024-03-29T06:31:59;4.35;;;2.70;;
73585;SDS011;61865;50.232;18.614;2024-03-29T06:34:22;5.72;;;2.92;;
73585;SDS011;61865;50.232;18.614;2024-03-29T06:36:46;5.15;;;2.53;;
73585;SDS011;61865;50.232;18.614;2024-03-29T06:39:08;7.20;;;2.33;;
73585;SDS011;61865;50.232;18.614;2024-03-29T06:41:30;5.78;;;2.65;;
73585;SDS011;61865;50.232;18.614;2024-03-29T06:43:52;4.38;;;2.85;;
73585;SDS011;61865;50.232;18.614;2024-03-29T06:46:15;5.55;;;2.85;;
73585;SDS011;61865;50.232;18.614;2024-03-29T06:48:37;4.57;;;2.70;;
73585;SDS011;61865;50.232;18.614;2024-03-29T06:50:59;4.47;;;2.60;;
73585;SDS011;61865;50.232;18.614;2024-03-29T06:53:23;3.38;;;2.00;;
73585;SDS011;61865;50.232;18.614;2024-03-29T06:55:46;4.55;;;2.22;;
73585;SDS011;61865;50.232;18.614;2024-03-29T06:58:09;3.35;;;2.17;;
73585;SDS011;61865;50.232;18.614;2024-03-29T07:00:32;3.38;;;2.17;;
73585;SDS011;61865;50.232;18.614;2024-03-29T07:02:57;6.75;;;2.08;;
73585;SDS011;61865;50.232;18.614;2024-03-29T07:05:18;2.60;;;1.92;;
73585;SDS011;61865;50.232;18.614;2024-03-29T07:07:41;5.25;;;2.53;;
73585;SDS011;61865;50.232;18.614;2024-03-29T07:10:07;3.30;;;2.28;;
73585;SDS011;61865;50.232;18.614;2024-03-29T07:12:30;2.97;;;2.22;;
73585;SDS011;61865;50.232;18.614;2024-03-29T07:14:52;5.90;;;2.45;;
73585;SDS011;61865;50.232;18.614;2024-03-29T07:17:14;2.72;;;2.15;;
73585;SDS011;61865;50.232;18.614;2024-03-29T07:19:36;2.63;;;2.20;;
73585;SDS011;61865;50.232;18.614;2024-03-29T07:21:59;3.83;;;2.25;;
73585;SDS011;61865;50.232;18.614;2024-03-29T07:24:21;4.07;;;2.40;;
73585;SDS011;61865;50.232;18.614;2024-03-29T07:26:44;3.85;;;2.05;;
73585;SDS011;61865;50.232;18.614;2024-03-29T07:29:07;3.78;;;2.40;;
73585;SDS011;61865;50.232;18.614;2024-03-29T07:31:29;3.08;;;2.30;;
73585;SDS011;61865;50.232;18.614;2024-03-29T07:33:52;5.70;;;2.45;;
73585;SDS011;61865;50.232;18.614;2024-03-29T07:36:14;3.70;;;2.20;;
73585;SDS011;61865;50.232;18.614;2024-03-29T07:38:36;4.45;;;2.60;;
73585;SDS011;61865;50.232;18.614;2024-03-29T07:40:59;5.00;;;2.30;;
73585;SDS011;61865;50.232;18.614;2024-03-29T07:43:23;4.60;;;2.58;;
73585;SDS011;61865;50.232;18.614;2024-03-29T07:45:45;6.50;;;2.80;;
73585;SDS011;61865;50.232;18.614;2024-03-29T07:48:09;8.10;;;2.90;;
73585;SDS011;61865;50.232;18.614;2024-03-29T07:50:32;7.75;;;2.90;;
73585;SDS011;61865;50.232;18.614;2024-03-29T07:52:54;6.55;;;2.83;;
73585;SDS011;61865;50.232;18.614;2024-03-29T07:55:16;5.75;;;2.55;;
73585;SDS011;61865;50.232;18.614;2024-03-29T07:57:39;3.83;;;2.47;;
73585;SDS011;61865;50.232;18.614;2024-03-29T08:00:02;7.05;;;2.55;;
73585;SDS011;61865;50.232;18.614;2024-03-29T08:02:25;5.25;;;2.50;;
73585;SDS011;61865;50.232;18.614;2024-03-29T08:04:47;3.53;;;2.33;;
73585;SDS011;61865;50.232;18.614;2024-03-29T08:07:10;5.88;;;2.53;;
73585;SDS011;61865;50.232;18.614;2024-03-29T08:09:32;4.10;;;2.50;;
73585;SDS011;61865;50.232;18.614;2024-03-29T08:11:55;3.10;;;2.20;;
73585;SDS011;61865;50.232;18.614;2024-03-29T08:14:17;4.05;;;2.15;;
73585;SDS011;61865;50.232;18.614;2024-03-29T08:16:40;5.45;;;2.78;;
73585;SDS011;61865;50.232;18.614;2024-03-29T08:19:03;5.70;;;2.22;;
73585;SDS011;61865;50.232;18.614;2024-03-29T08:21:25;3.05;;;2.22;;
73585;SDS011;61865;50.232;18.614;2024-03-29T08:23:48;4.82;;;2.00;;
73585;SDS011;61865;50.232;18.614;2024-03-29T08:26:11;3.13;;;1.80;;
73585;SDS011;61865;50.232;18.614;2024-03-29T08:28:34;2.83;;;1.63;;
73585;SDS011;61865;50.232;18.614;2024-03-29T08:30:58;4.40;;;1.92;;
73585;SDS011;61865;50.232;18.614;2024-03-29T08:33:22;4.53;;;2.15;;
73585;SDS011;61865;50.232;18.614;2024-03-29T08:35:44;3.08;;;1.90;;
73585;SDS011;61865;50.232;18.614;2024-03-29T08:38:07;4.50;;;2.00;;
73585;SDS011;61865;50.232;18.614;2024-03-29T08:40:32;2.17;;;1.63;;
73585;SDS011;61865;50.232;18.614;2024-03-29T08:50:30;2.55;;;1.75;;
73585;SDS011;61865;50.232;18.614;2024-03-29T08:52:52;4.68;;;2.03;;
73585;SDS011;61865;50.232;18.614;2024-03-29T08:55:14;5.20;;;1.88;;
73585;SDS011;61865;50.232;18.614;2024-03-29T08:57:36;2.97;;;1.85;;
73585;SDS011;61865;50.232;18.614;2024-03-29T08:59:58;7.30;;;2.05;;
73585;SDS011;61865;50.232;18.614;2024-03-29T09:02:20;4.47;;;1.85;;
73585;SDS011;61865;50.232;18.614;2024-03-29T09:04:43;2.65;;;1.85;;
73585;SDS011;61865;50.232;18.614;2024-03-29T09:07:06;3.08;;;1.73;;
73585;SDS011;61865;50.232;18.614;2024-03-29T09:09:29;5.22;;;1.80;;
73585;SDS011;61865;50.232;18.614;2024-03-29T09:11:51;2.35;;;1.80;;
73585;SDS011;61865;50.232;18.614;2024-03-29T09:14:13;1.83;;;1.70;;
73585;SDS011;61865;50.232;18.614;2024-03-29T09:16:36;1.75;;;1.63;;
73585;SDS011;61865;50.232;18.614;2024-03-29T09:19:00;2.20;;;1.55;;
73585;SDS011;61865;50.232;18.614;2024-03-29T09:21:22;1.77;;;1.40;;
73585;SDS011;61865;50.232;18.614;2024-03-29T09:23:46;3.33;;;1.60;;
73585;SDS011;61865;50.232;18.614;2024-03-29T09:26:11;3.38;;;1.77;;
73585;SDS011;61865;50.232;18.614;2024-03-29T09:28:34;2.35;;;1.77;;
73585;SDS011;61865;50.232;18.614;2024-03-29T09:30:57;3.03;;;1.67;;
73585;SDS011;61865;50.232;18.614;2024-03-29T09:33:20;3.83;;;2.08;;
73585;SDS011;61865;50.232;18.614;2024-03-29T09:35:42;2.58;;;1.85;;
73585;SDS011;61865;50.232;18.614;2024-03-29T09:38:04;4.82;;;2.00;;
73585;SDS011;61865;50.232;18.614;2024-03-29T09:40:28;2.53;;;1.60;;
73585;SDS011;61865;50.232;18.614;2024-03-29T09:42:50;3.80;;;1.85;;
73585;SDS011;61865;50.232;18.614;2024-03-29T09:45:13;2.50;;;1.73;;
73585;SDS011;61865;50.232;18.614;2024-03-29T09:47:35;5.25;;;2.03;;
73585;SDS011;61865;50.232;18.614;2024-03-29T09:49:59;3.63;;;1.58;;
73585;SDS011;61865;50.232;18.614;2024-03-29T09:52:24;2.58;;;1.50;;
73585;SDS011;61865;50.232;18.614;2024-03-29T09:54:46;3.45;;;1.70;;
73585;SDS011;61865;50.232;18.614;2024-03-29T09:57:10;3.85;;;1.63;;
73585;SDS011;61865;50.232;18.614;2024-03-29T09:59:34;1.50;;;1.40;;
73585;SDS011;61865;50.232;18.614;2024-03-29T10:01:57;4.07;;;1.70;;
73585;SDS011;61865;50.232;18.614;2024-03-29T10:04:20;2.28;;;1.60;;
73585;SDS011;61865;50.232;18.614;2024-03-29T10:06:44;3.58;;;1.63;;
73585;SDS011;61865;50.232;18.614;2024-03-29T10:09:09;2.35;;;1.52;;
73585;SDS011;61865;50.232;18.614;2024-03-29T10:11:31;1.83;;;1.50;;
73585;SDS011;61865;50.232;18.614;2024-03-29T10:13:55;1.98;;;1.40;;
73585;SDS011;61865;50.232;18.614;2024-03-29T10:16:18;3.95;;;1.75;;
73585;SDS011;61865;50.232;18.614;2024-03-29T10:18:43;3.47;;;1.67;;
73585;SDS011;61865;50.232;18.614;2024-03-29T10:21:07;2.70;;;1.70;;
73585;SDS011;61865;50.232;18.614;2024-03-29T10:23:32;4.15;;;1.60;;
73585;SDS011;61865;50.232;18.614;2024-03-29T10:25:55;1.52;;;1.40;;
73585;SDS011;61865;50.232;18.614;2024-03-29T10:28:21;3.40;;;1.50;;
73585;SDS011;61865;50.232;18.614;2024-03-29T10:30:47;4.15;;;1.50;;
73585;SDS011;61865;50.232;18.614;2024-03-29T10:33:09;2.00;;;1.42;;
73585;SDS011;61865;50.232;18.614;2024-03-29T10:35:32;2.33;;;1.60;;
73585;SDS011;61865;50.232;18.614;2024-03-29T10:37:54;1.45;;;1.30;;
73585;SDS011;61865;50.232;18.614;2024-03-29T10:40:16;3.58;;;1.30;;
73585;SDS011;61865;50.232;18.614;2024-03-29T10:42:39;3.13;;;1.45;;
73585;SDS011;61865;50.232;18.614;2024-03-29T10:45:01;2.65;;;1.40;;
73585;SDS011;61865;50.232;18.614;2024-03-29T10:47:25;2.92;;;1.40;;
73585;SDS011;61865;50.232;18.614;2024-03-29T10:49:49;1.33;;;1.17;;
73585;SDS011;61865;50.232;18.614;2024-03-29T10:52:11;2.28;;;1.50;;
73585;SDS011;61865;50.232;18.614;2024-03-29T10:54:37;1.42;;;1.33;;
73585;SDS011;61865;50.232;18.614;2024-03-29T10:56:59;2.42;;;1.63;;
73585;SDS011;61865;50.232;18.614;2024-03-29T10:59:29;1.73;;;1.30;;
73585;SDS011;61865;50.232;18.614;2024-03-29T11:01:57;1.98;;;1.20;;
73585;SDS011;61865;50.232;18.614;2024-03-29T11:04:22;1.30;;;1.20;;
73585;SDS011;61865;50.232;18.614;2024-03-29T11:06:46;2.70;;;1.60;;
73585;SDS011;61865;50.232;18.614;2024-03-29T11:09:12;1.23;;;1.13;;
73585;SDS011;61865;50.232;18.614;2024-03-29T11:11:35;1.27;;;1.23;;
73585;SDS011;61865;50.232;18.614;2024-03-29T11:14:01;1.80;;;1.08;;
73585;SDS011;61865;50.232;18.614;2024-03-29T11:16:26;2.78;;;1.15;;
73585;SDS011;61865;50.232;18.614;2024-03-29T11:18:49;1.25;;;1.10;;
73585;SDS011;61865;50.232;18.614;2024-03-29T11:21:12;1.27;;;1.17;;
73585;SDS011;61865;50.232;18.614;2024-03-29T11:23:39;1.55;;;1.10;;
73585;SDS011;61865;50.232;18.614;2024-03-29T11:26:00;3.15;;;1.20;;
73585;SDS011;61865;50.232;18.614;2024-03-29T11:28:23;1.13;;;1.13;;
73585;SDS011;61865;50.232;18.614;2024-03-29T11:30:46;1.80;;;1.23;;
73585;SDS011;61865;50.232;18.614;2024-03-29T11:35:46;1.60;;;1.30;;
73585;SDS011;61865;50.232;18.614;2024-03-29T11:38:10;4.20;;;1.40;;
73585;SDS011;61865;50.232;18.614;2024-03-29T11:40:32;2.67;;;1.40;;
73585;SDS011;61865;50.232;18.614;2024-03-29T11:42:55;2.67;;;1.40;;
73585;SDS011;61865;50.232;18.614;2024-03-29T11:45:17;2.20;;;1.50;;
73585;SDS011;61865;50.232;18.614;2024-03-29T11:47:40;1.55;;;1.38;;
73585;SDS011;61865;50.232;18.614;2024-03-29T11:50:03;3.50;;;1.23;;
73585;SDS011;61865;50.232;18.614;2024-03-29T11:52:26;2.65;;;1.30;;
73585;SDS011;61865;50.232;18.614;2024-03-29T11:54:50;1.23;;;1.15;;
73585;SDS011;61865;50.232;18.614;2024-03-29T11:57:12;2.15;;;1.35;;
73585;SDS011;61865;50.232;18.614;2024-03-29T11:59:34;2.58;;;1.30;;
73585;SDS011;61865;50.232;18.614;2024-03-29T12:01:56;1.48;;;1.20;;
73585;SDS011;61865;50.232;18.614;2024-03-29T12:04:19;2.92;;;1.50;;
73585;SDS011;61865;50.232;18.614;2024-03-29T12:06:42;2.00;;;1.40;;
73585;SDS011;61865;50.232;18.614;2024-03-29T12:09:05;1.77;;;1.27;;
73585;SDS011;61865;50.232;18.614;2024-03-29T12:11:29;2.05;;;1.27;;
73585;SDS011;61865;50.232;18.614;2024-03-29T12:13:53;3.63;;;1.30;;
73585;SDS011;61865;50.232;18.614;2024-03-29T12:16:15;2.63;;;1.42;;
73585;SDS011;61865;50.232;18.614;2024-03-29T12:18:37;3.53;;;1.50;;
73585;SDS011;61865;50.232;18.614;2024-03-29T12:21:00;4.72;;;1.90;;
73585;SDS011;61865;50.232;18.614;2024-03-29T12:23:22;1.95;;;1.30;;
73585;SDS011;61865;50.232;18.614;2024-03-29T12:25:45;1.48;;;1.10;;
73585;SDS011;61865;50.232;18.614;2024-03-29T12:28:11;1.63;;;1.27;;
73585;SDS011;61865;50.232;18.614;2024-03-29T12:30:34;2.20;;;1.30;;
73585;SDS011;61865;50.232;18.614;2024-03-29T12:33:00;3.72;;;1.98;;
73585;SDS011;61865;50.232;18.614;2024-03-29T12:35:22;1.45;;;1.20;;
73585;SDS011;61865;50.232;18.614;2024-03-29T12:37:49;2.90;;;1.10;;
73585;SDS011;61865;50.232;18.614;2024-03-29T12:40:11;3.08;;;1.27;;
73585;SDS011;61865;50.232;18.614;2024-03-29T12:42:38;2.40;;;1.30;;
73585;SDS011;61865;50.232;18.614;2024-03-29T12:45:02;1.67;;;1.15;;
73585;SDS011;61865;50.232;18.614;2024-03-29T12:47:24;1.00;;;1.00;;
73585;SDS011;61865;50.232;18.614;2024-03-29T12:49:47;1.60;;;1.20;;
73585;SDS011;61865;50.232;18.614;2024-03-29T12:52:10;2.45;;;1.40;;
73585;SDS011;61865;50.232;18.614;2024-03-29T12:54:33;2.47;;;1.08;;
73585;SDS011;61865;50.232;18.614;2024-03-29T12:56:55;2.40;;;1.70;;
73585;SDS011;61865;50.232;18.614;2024-03-29T12:59:19;2.42;;;1.20;;
73585;SDS011;61865;50.232;18.614;2024-03-29T13:01:43;2.63;;;1.40;;
73585;SDS011;61865;50.232;18.614;2024-03-29T13:04:05;1.80;;;1.40;;
73585;SDS011;61865;50.232;18.614;2024-03-29T13:06:28;3.15;;;1.40;;
73585;SDS011;61865;50.232;18.614;2024-03-29T13:08:50;2.45;;;1.05;;
73585;SDS011;61865;50.232;18.614;2024-03-29T13:11:13;3.03;;;1.42;;
73585;SDS011;61865;50.232;18.614;2024-03-29T13:13:36;3.03;;;1.67;;
73585;SDS011;61865;50.232;18.614;2024-03-29T13:15:58;3.20;;;1.60;;
73585;SDS011;61865;50.232;18.614;2024-03-29T13:18:21;2.25;;;1.42;;
73585;SDS011;61865;50.232;18.614;2024-03-29T13:20:44;2.92;;;1.33;;
73585;SDS011;61865;50.232;18.614;2024-03-29T13:23:06;1.58;;;1.20;;
73585;SDS011;61865;50.232;18.614;2024-03-29T13:25:28;2.72;;;1.45;;
73585;SDS011;61865;50.232;18.614;2024-03-29T13:27:51;3.53;;;1.30;;
73585;SDS011;61865;50.232;18.614;2024-03-29T13:30:15;1.70;;;1.30;;
73585;SDS011;61865;50.232;18.614;2024-03-29T13:32:36;1.25;;;1.15;;
73585;SDS011;61865;50.232;18.614;2024-03-29T13:35:00;2.58;;;1.15;;
73585;SDS011;61865;50.232;18.614;2024-03-29T13:37:25;3.70;;;1.40;;
73585;SDS011;61865;50.232;18.614;2024-03-29T13:39:47;5.25;;;1.48;;
73585;SDS011;61865;50.232;18.614;2024-03-29T13:42:10;3.50;;;1.52;;
73585;SDS011;61865;50.232;18.614;2024-03-29T13:44:32;2.45;;;1.13;;
73585;SDS011;61865;50.232;18.614;2024-03-29T13:46:54;1.60;;;1.27;;
73585;SDS011;61865;50.232;18.614;2024-03-29T13:49:18;2.97;;;1.50;;
73585;SDS011;61865;50.232;18.614;2024-03-29T13:51:42;1.88;;;1.30;;
73585;SDS011;61865;50.232;18.614;2024-03-29T13:54:04;1.77;;;1.23;;
73585;SDS011;61865;50.232;18.614;2024-03-29T13:56:27;3.30;;;1.40;;
73585;SDS011;61865;50.232;18.614;2024-03-29T13:58:49;1.92;;;1.08;;
73585;SDS011;61865;50.232;18.614;2024-03-29T14:01:12;4.47;;;1.42;;
73585;SDS011;61865;50.232;18.614;2024-03-29T14:03:34;4.30;;;1.40;;
73585;SDS011;61865;50.232;18.614;2024-03-29T14:05:56;2.63;;;1.48;;
73585;SDS011;61865;50.232;18.614;2024-03-29T14:08:20;2.88;;;1.45;;
73585;SDS011;61865;50.232;18.614;2024-03-29T14:10:42;2.00;;;1.20;;
73585;SDS011;61865;50.232;18.614;2024-03-29T14:13:04;2.90;;;1.30;;
73585;SDS011;61865;50.232;18.614;2024-03-29T14:15:27;2.75;;;1.63;;
73585;SDS011;61865;50.232;18.614;2024-03-29T14:17:50;3.17;;;1.35;;
73585;SDS011;61865;50.232;18.614;2024-03-29T14:20:12;4.25;;;1.50;;
73585;SDS011;61865;50.232;18.614;2024-03-29T14:22:34;2.92;;;1.35;;
73585;SDS011;61865;50.232;18.614;2024-03-29T14:24:59;3.45;;;1.42;;
73585;SDS011;61865;50.232;18.614;2024-03-29T14:27:23;3.95;;;1.80;;
73585;SDS011;61865;50.232;18.614;2024-03-29T14:29:45;5.03;;;1.60;;
73585;SDS011;61865;50.232;18.614;2024-03-29T14:32:07;1.65;;;1.20;;
73585;SDS011;61865;50.232;18.614;2024-03-29T14:34:30;2.15;;;1.40;;
73585;SDS011;61865;50.232;18.614;2024-03-29T14:36:57;3.33;;;1.50;;
73585;SDS011;61865;50.232;18.614;2024-03-29T14:39:20;4.07;;;1.70;;
73585;SDS011;61865;50.232;18.614;2024-03-29T14:41:43;4.85;;;2.20;;
73585;SDS011;61865;50.232;18.614;2024-03-29T14:44:06;4.82;;;1.63;;
73585;SDS011;61865;50.232;18.614;2024-03-29T14:46:28;6.85;;;1.67;;